This is the latest recevied weather packets stored in our database for station/object OK1FRN-6. If no packets are shown the sender has not sent any weather packets the latest 10 day(s).
| Time | Temp. | Humidity | Pressure | Rain* | Wind** | Luminosity | Snow |
|---|---|---|---|---|---|---|---|
| 1777438989 | 0° C | 61% | 1025.9 hPa | - | - | - | - |
| 1777438684 | -0.56° C | 61% | 1025.9 hPa | - | - | - | - |
| 1777438379 | -0.56° C | 60% | 1025.9 hPa | - | - | - | - |
| 1777438074 | -1.11° C | 61% | 1025.8 hPa | - | - | - | - |
| 1777437769 | -1.11° C | 61% | 1025.8 hPa | - | - | - | - |
| 1777437463 | -1.11° C | 61% | 1025.7 hPa | - | - | - | - |
| 1777436548 | -1.11° C | 60% | 1025.6 hPa | - | - | - | - |
| 1777436243 | -1.11° C | 60% | 1025.6 hPa | - | - | - | - |
| 1777435632 | -1.11° C | 60% | 1025.5 hPa | - | - | - | - |
| 1777435022 | -1.11° C | 59% | 1025.4 hPa | - | - | - | - |
| 1777434717 | -1.11° C | 59% | 1025.3 hPa | - | - | - | - |
| 1777433802 | -1.11° C | 58% | 1025.2 hPa | - | - | - | - |
| 1777433497 | -1.11° C | 58% | 1025.2 hPa | - | - | - | - |
| 1777425256 | 1.67° C | 54% | 1024.6 hPa | - | - | - | - |
| 1777424646 | 1.67° C | 54% | 1024.6 hPa | - | - | - | - |
| 1777423119 | 2.22° C | 52% | 1024.6 hPa | - | - | - | - |
| 1777422509 | 2.78° C | 51% | 1024.5 hPa | - | - | - | - |
| 1777421593 | 2.78° C | 50% | 1024.5 hPa | - | - | - | - |
| 1777415484 | 6.11° C | 43% | 1024.1 hPa | - | - | - | - |
| 1777415178 | 6.67° C | 42% | 1024.1 hPa | - | - | - | - |
| 1777414873 | 6.67° C | 42% | 1024 hPa | - | - | - | - |
| 1777413956 | 7.22° C | 42% | 1023.9 hPa | - | - | - | - |
| 1777411511 | 8.33° C | 41% | 1023.7 hPa | - | - | - | - |
| 1777410900 | 8.89° C | 40% | 1023.4 hPa | - | - | - | - |
| 1777410594 | 8.89° C | 40% | 1023.5 hPa | - | - | - | - |
* Rain since midnight (hover to see other rain measurements)
** Current wind speed in m/s (hover to see current wind gust speed)